createdAt,value
2022-09-17T00:01:33.253Z,59.70
2022-09-17T00:04:04.647Z,59.74
2022-09-17T00:06:35.048Z,59.69
2022-09-17T00:09:07.934Z,59.81
2022-09-17T00:11:38.216Z,59.67
2022-09-17T00:14:07.925Z,59.69
2022-09-17T00:16:39.885Z,59.36
2022-09-17T00:19:13.163Z,59.54
2022-09-17T00:21:41.817Z,59.40
2022-09-17T00:24:12.425Z,59.30
2022-09-17T00:26:40.872Z,59.02
2022-09-17T00:29:08.938Z,59.18
2022-09-17T00:31:38.098Z,59.25
2022-09-17T00:34:06.804Z,58.96
2022-09-17T00:36:36.576Z,59.33
2022-09-17T00:39:05.734Z,59.35
2022-09-17T00:41:35.927Z,59.29
2022-09-17T00:44:41.395Z,59.17
2022-09-17T00:47:23.702Z,59.23
2022-09-17T00:49:57.033Z,59.31
2022-09-17T00:52:31.166Z,59.30
2022-09-17T00:55:32.989Z,59.04
2022-09-17T00:58:03.777Z,58.91
2022-09-17T01:00:32.633Z,59.19
2022-09-17T01:03:00.930Z,59.12
2022-09-17T01:05:37.953Z,58.98
2022-09-17T01:08:15.535Z,58.88
2022-09-17T01:11:17.958Z,58.90
2022-09-17T01:14:14.204Z,58.70
2022-09-17T01:17:15.350Z,58.81
2022-09-17T01:20:23.166Z,58.91
2022-09-17T01:23:07.381Z,59.02
2022-09-17T01:25:53.499Z,59.05
2022-09-17T01:28:29.963Z,59.14
2022-09-17T01:31:12.683Z,59.16
2022-09-17T01:33:45.083Z,59.13
2022-09-17T01:36:47.074Z,59.07
2022-09-17T01:39:20.534Z,58.93
2022-09-17T01:41:56.706Z,58.90
2022-09-17T01:44:47.629Z,58.93
2022-09-17T01:51:06.973Z,59.13
2022-09-17T01:53:56.933Z,59.26
2022-09-17T01:56:44.293Z,59.34
2022-09-17T01:59:22.822Z,59.12
2022-09-17T02:02:00.273Z,59.21
2022-09-17T02:04:36.493Z,59.36
2022-09-17T02:07:13.021Z,59.39
2022-09-17T02:09:45.908Z,59.41
2022-09-17T02:12:18.966Z,59.58
2022-09-17T02:14:52.317Z,59.34
2022-09-17T02:17:30.269Z,59.48
2022-09-17T02:19:59.227Z,59.49
2022-09-17T02:22:38.749Z,59.53
2022-09-17T02:25:23.939Z,59.61
2022-09-17T02:28:15.259Z,59.69
2022-09-17T02:30:43.713Z,59.77
2022-09-17T02:33:15.188Z,59.67
2022-09-17T02:35:44.267Z,59.70
2022-09-17T02:38:11.848Z,59.74
2022-09-17T02:40:54.598Z,59.66
2022-09-17T02:43:42.119Z,59.35
2022-09-17T02:46:41.162Z,59.53
2022-09-17T02:49:14.951Z,59.51
2022-09-17T02:52:01.363Z,59.52
2022-09-17T02:54:52.565Z,59.64
2022-09-17T02:58:03.474Z,59.57
2022-09-17T03:00:37.375Z,59.65
2022-09-17T03:03:30.079Z,59.52
2022-09-17T03:05:58.659Z,59.47
2022-09-17T03:08:32.446Z,59.65
2022-09-17T03:11:00.188Z,59.74
2022-09-17T03:13:27.946Z,59.76
2022-09-17T03:15:55.776Z,59.83
2022-09-17T03:18:24.035Z,59.74
2022-09-17T03:20:51.767Z,59.74
2022-09-17T03:23:19.439Z,59.80
2022-09-17T03:25:47.668Z,60.02
2022-09-17T03:28:16.218Z,60.05
2022-09-17T03:30:45.224Z,60.14
2022-09-17T03:33:16.054Z,60.08
2022-09-17T03:35:44.845Z,60.29
2022-09-17T03:38:13.621Z,60.33
2022-09-17T03:40:41.284Z,60.44
2022-09-17T03:43:31.095Z,60.52
2022-09-17T03:45:59.883Z,60.58
2022-09-17T03:48:32.336Z,60.68
2022-09-17T03:51:00.382Z,60.71
2022-09-17T03:53:28.117Z,60.85
2022-09-17T03:55:59.444Z,60.83
2022-09-17T03:58:27.420Z,60.79
2022-09-17T04:00:57.861Z,61.03
2022-09-17T04:03:26.805Z,60.87
2022-09-17T04:05:55.189Z,61.04
2022-09-17T04:08:23.458Z,61.05
2022-09-17T04:10:52.159Z,61.15
2022-09-17T04:13:20.186Z,61.12
2022-09-17T04:15:48.387Z,61.11
2022-09-17T04:18:20.086Z,61.11
2022-09-17T04:20:47.715Z,61.19
2022-09-17T04:23:15.332Z,61.16
2022-09-17T04:25:43.433Z,61.28
2022-09-17T04:28:11.535Z,61.10
2022-09-17T04:30:39.697Z,61.13
2022-09-17T04:33:07.389Z,61.40
2022-09-17T04:35:35.260Z,61.54
2022-09-17T04:38:03.158Z,61.20
2022-09-17T04:40:30.857Z,61.22
2022-09-17T04:43:00.078Z,61.24
2022-09-17T04:45:27.769Z,61.25
2022-09-17T04:47:58.378Z,61.23
2022-09-17T04:50:26.298Z,61.12
2022-09-17T04:52:54.375Z,61.10
2022-09-17T04:55:22.526Z,60.92
2022-09-17T04:57:52.739Z,60.82
2022-09-17T05:00:22.564Z,60.96
2022-09-17T05:02:59.498Z,60.68
2022-09-17T05:05:30.054Z,60.78
2022-09-17T05:07:57.947Z,60.82
2022-09-17T05:10:32.707Z,60.76
2022-09-17T05:13:00.543Z,60.94
2022-09-17T05:15:28.318Z,60.96
2022-09-17T05:17:56.033Z,60.85
2022-09-17T05:20:23.793Z,60.38
2022-09-17T05:22:53.132Z,60.64
2022-09-17T05:25:25.600Z,60.59
2022-09-17T05:27:54.715Z,60.59
2022-09-17T05:30:22.856Z,60.39
2022-09-17T05:33:03.248Z,60.14
2022-09-17T05:35:31.987Z,60.07
2022-09-17T05:38:24.787Z,59.89
2022-09-17T05:40:52.802Z,59.93
2022-09-17T05:43:20.449Z,59.62
2022-09-17T05:45:48.384Z,59.27
2022-09-17T05:48:16.538Z,58.69
2022-09-17T05:50:44.238Z,58.52
2022-09-17T05:53:14.525Z,58.47
2022-09-17T05:55:42.857Z,57.99
2022-09-17T05:58:13.141Z,57.67
2022-09-17T06:00:42.347Z,57.49
2022-09-17T06:03:15.578Z,57.46
2022-09-17T06:05:43.404Z,57.03
2022-09-17T06:08:11.239Z,56.69
2022-09-17T06:10:39.555Z,56.39
2022-09-17T06:13:07.465Z,55.97
2022-09-17T06:15:41.285Z,55.98
2022-09-17T06:18:09.001Z,55.65
2022-09-17T06:20:36.733Z,55.34
2022-09-17T06:23:04.471Z,55.04
2022-09-17T06:25:32.180Z,54.82
2022-09-17T06:28:03.534Z,54.46
2022-09-17T06:30:31.355Z,54.11
2022-09-17T06:33:08.191Z,54.31
2022-09-17T06:35:48.237Z,54.23
2022-09-17T06:38:17.046Z,53.90
2022-09-17T06:40:52.698Z,53.21
2022-09-17T06:43:21.179Z,53.03
2022-09-17T06:45:56.864Z,52.70
2022-09-17T06:48:25.457Z,52.58
2022-09-17T06:50:54.500Z,52.71
2022-09-17T06:53:32.377Z,52.41
2022-09-17T06:56:24.701Z,51.84
2022-09-17T06:58:58.827Z,51.79
2022-09-17T07:01:26.967Z,52.26
2022-09-17T07:03:55.017Z,52.04
2022-09-17T07:06:22.627Z,52.30
2022-09-17T07:08:50.264Z,51.96
2022-09-17T07:11:17.973Z,51.89
2022-09-17T07:13:45.596Z,51.25
2022-09-17T07:16:13.571Z,50.82
2022-09-17T07:18:41.234Z,50.66
2022-09-17T07:21:10.628Z,50.99
2022-09-17T07:23:56.669Z,51.26
2022-09-17T07:26:29.785Z,51.10
2022-09-17T07:28:58.029Z,50.90
2022-09-17T07:31:26.312Z,51.06
2022-09-17T07:33:54.559Z,51.31
2022-09-17T07:36:22.848Z,51.39
2022-09-17T07:38:50.446Z,51.70
2022-09-17T07:41:18.561Z,51.78
2022-09-17T07:43:46.294Z,51.88
2022-09-17T07:46:19.419Z,52.32
2022-09-17T07:48:48.468Z,52.53
2022-09-17T07:51:24.706Z,52.67
2022-09-17T07:53:54.190Z,52.81
2022-09-17T07:56:22.902Z,52.67
2022-09-17T07:58:50.816Z,52.83
2022-09-17T08:01:19.002Z,52.85
2022-09-17T08:03:54.550Z,53.05
2022-09-17T08:06:31.197Z,52.64
2022-09-17T08:09:00.259Z,53.42
2022-09-17T08:14:25.663Z,53.71
2022-09-17T08:17:02.558Z,53.92
2022-09-17T08:19:33.520Z,54.33
2022-09-17T08:22:10.538Z,54.29
2022-09-17T08:24:47.070Z,54.21
2022-09-17T08:27:15.350Z,54.23
2022-09-17T08:29:48.793Z,54.60
2022-09-17T08:32:31.834Z,54.12
2022-09-17T08:35:20.520Z,53.63
2022-09-17T08:38:00.257Z,53.89
2022-09-17T08:40:39.990Z,53.47
2022-09-17T08:43:14.257Z,53.72
2022-09-17T08:45:42.085Z,53.57
2022-09-17T08:48:19.466Z,53.09
2022-09-17T08:50:47.525Z,53.05
2022-09-17T08:53:24.479Z,53.06
2022-09-17T08:56:13.488Z,53.62
2022-09-17T08:58:52.565Z,52.75
2022-09-17T09:01:20.344Z,52.54
2022-09-17T09:04:14.278Z,51.99
2022-09-17T09:06:49.925Z,51.67
2022-09-17T09:12:49.993Z,51.24
2022-09-17T09:15:43.775Z,51.11
2022-09-17T09:18:23.135Z,51.13
2022-09-17T09:21:14.012Z,51.16
2022-09-17T09:24:32.355Z,51.40
2022-09-17T09:27:30.434Z,51.32
2022-09-17T09:30:12.147Z,51.44
2022-09-17T09:33:20.800Z,51.77
2022-09-17T09:35:49.444Z,51.90
2022-09-17T09:38:32.855Z,51.83
2022-09-17T09:41:17.776Z,51.70
2022-09-17T09:44:04.737Z,51.20
2022-09-17T09:46:58.283Z,50.93
2022-09-17T09:50:19.602Z,51.28
2022-09-17T09:53:05.173Z,51.16
2022-09-17T09:55:59.178Z,50.96
2022-09-17T09:58:41.952Z,50.61
2022-09-17T10:01:29.631Z,50.74
2022-09-17T10:03:59.279Z,51.32
2022-09-17T10:06:31.774Z,51.75
2022-09-17T10:09:05.218Z,52.28
2022-09-17T10:11:33.470Z,53.01
2022-09-17T10:14:24.731Z,53.68
2022-09-17T10:17:14.085Z,54.13
2022-09-17T10:19:42.607Z,55.09
2022-09-17T10:22:25.578Z,55.72
2022-09-17T10:24:59.745Z,55.25
2022-09-17T10:27:34.226Z,55.49
2022-09-17T10:30:09.254Z,55.47
2022-09-17T10:32:36.968Z,55.15
2022-09-17T10:35:06.579Z,54.46
2022-09-17T10:37:46.447Z,54.30
2022-09-17T10:40:20.150Z,53.98
2022-09-17T10:43:23.535Z,54.00
2022-09-17T10:46:24.036Z,53.47
2022-09-17T10:49:18.818Z,53.35
2022-09-17T10:51:46.627Z,52.84
2022-09-17T10:54:49.585Z,52.71
2022-09-17T10:57:38.018Z,52.81
2022-09-17T11:00:16.288Z,52.58
2022-09-17T11:03:05.088Z,51.72
2022-09-17T11:06:25.468Z,51.83
2022-09-17T11:09:17.535Z,51.63
2022-09-17T11:12:03.451Z,51.94
2022-09-17T11:14:53.458Z,51.74
2022-09-17T11:18:05.685Z,51.91
2022-09-17T11:21:08.736Z,51.18
2022-09-17T11:23:54.142Z,50.74
2022-09-17T11:27:01.340Z,50.41
2022-09-17T11:30:01.517Z,50.39
2022-09-17T11:32:49.329Z,50.03
2022-09-17T11:35:46.195Z,49.72
2022-09-17T11:38:29.979Z,49.58
2022-09-17T11:41:30.898Z,49.52
2022-09-17T11:44:17.585Z,49.87
2022-09-17T11:46:59.183Z,49.91
2022-09-17T11:49:33.904Z,49.99
2022-09-17T11:52:32.941Z,50.19
2022-09-17T11:55:24.549Z,49.76
2022-09-17T11:58:12.607Z,49.20
2022-09-17T12:00:52.817Z,48.85
2022-09-17T12:03:30.938Z,48.32
2022-09-17T12:06:18.670Z,49.00
2022-09-17T12:09:12.896Z,49.39
2022-09-17T12:12:37.756Z,49.35
2022-09-17T12:15:18.528Z,49.72
2022-09-17T12:21:17.655Z,49.83
2022-09-17T12:24:13.108Z,49.83
2022-09-17T12:27:12.624Z,49.58
2022-09-17T12:30:05.800Z,49.28
2022-09-17T12:33:18.777Z,49.49
2022-09-17T12:36:25.006Z,49.33
2022-09-17T12:39:24.389Z,49.45
2022-09-17T12:42:01.480Z,49.50
2022-09-17T12:44:32.228Z,49.71
2022-09-17T12:47:25.927Z,49.56
2022-09-17T12:50:39.090Z,50.10
2022-09-17T12:53:22.805Z,50.05
2022-09-17T12:56:05.857Z,49.95
2022-09-17T12:59:06.267Z,49.93
2022-09-17T13:02:35.318Z,50.49
2022-09-17T13:05:28.824Z,50.34
2022-09-17T13:08:27.847Z,50.90
2022-09-17T13:11:32.438Z,50.99
2022-09-17T13:14:36.437Z,51.06
2022-09-17T13:17:21.184Z,51.50
2022-09-17T13:20:35.577Z,51.56
2022-09-17T13:23:06.709Z,51.62
2022-09-17T13:25:37.047Z,51.49
2022-09-17T13:28:11.791Z,51.44
2022-09-17T13:31:02.595Z,51.82
2022-09-17T13:34:05.251Z,51.61
2022-09-17T13:36:46.484Z,51.32
2022-09-17T13:39:42.288Z,51.44
2022-09-17T13:42:29.296Z,51.44
2022-09-17T13:45:07.657Z,51.88
2022-09-17T13:48:20.392Z,51.55
2022-09-17T13:50:48.784Z,51.72
2022-09-17T13:53:39.047Z,51.78
2022-09-17T13:56:38.619Z,51.89
2022-09-17T13:59:26.286Z,52.24
2022-09-17T14:02:16.220Z,51.91
2022-09-17T14:04:50.123Z,51.70
2022-09-17T14:07:24.124Z,51.80
2022-09-17T14:10:21.697Z,51.80
2022-09-17T14:12:51.012Z,52.00
2022-09-17T14:15:35.998Z,52.34
2022-09-17T14:18:29.342Z,52.42
2022-09-17T14:21:31.150Z,52.33
2022-09-17T14:24:02.544Z,52.20
2022-09-17T14:27:08.989Z,52.32
2022-09-17T14:30:13.666Z,52.54
2022-09-17T14:32:54.244Z,52.10
2022-09-17T14:35:23.818Z,52.23
2022-09-17T14:37:57.503Z,51.72
2022-09-17T14:40:27.386Z,51.89
2022-09-17T14:42:57.956Z,52.04
2022-09-17T14:45:31.552Z,51.83
2022-09-17T14:48:20.141Z,51.70
2022-09-17T14:50:47.877Z,51.90
2022-09-17T14:53:20.331Z,52.13
2022-09-17T14:55:50.489Z,52.12
2022-09-17T14:58:36.522Z,51.95
2022-09-17T15:01:05.373Z,52.36
2022-09-17T15:03:35.044Z,52.20
2022-09-17T15:06:03.203Z,52.14
2022-09-17T15:08:31.949Z,52.01
2022-09-17T15:11:09.849Z,51.18
2022-09-17T15:13:42.670Z,51.25
2022-09-17T15:16:27.345Z,51.30
2022-09-17T15:18:59.770Z,51.51
2022-09-17T15:21:40.330Z,51.73
2022-09-17T15:24:40.670Z,52.19
2022-09-17T15:27:26.930Z,52.61
2022-09-17T15:30:03.758Z,53.05
2022-09-17T15:32:50.259Z,53.76
2022-09-17T15:35:34.259Z,53.88
2022-09-17T15:38:22.725Z,53.73
2022-09-17T15:40:52.007Z,54.14
2022-09-17T15:43:28.169Z,54.47
2022-09-17T15:46:29.070Z,54.54
2022-09-17T15:49:01.865Z,54.57
2022-09-17T15:51:35.847Z,54.31
2022-09-17T15:54:06.364Z,54.67
2022-09-17T15:56:39.017Z,54.50
2022-09-17T15:59:25.533Z,54.72
2022-09-17T16:01:56.450Z,54.51
2022-09-17T16:04:44.629Z,54.63
2022-09-17T16:07:12.163Z,55.10
2022-09-17T16:09:59.262Z,55.15
2022-09-17T16:12:32.948Z,55.10
2022-09-17T16:15:13.647Z,55.32
2022-09-17T16:17:50.055Z,55.29
2022-09-17T16:20:32.754Z,55.43
2022-09-17T16:23:03.319Z,55.46
2022-09-17T16:25:31.046Z,55.64
2022-09-17T16:28:02.886Z,56.28
2022-09-17T16:30:30.830Z,56.08
2022-09-17T16:33:04.039Z,56.37
2022-09-17T16:35:34.446Z,56.73
2022-09-17T16:38:02.385Z,57.06
2022-09-17T16:40:33.390Z,57.36
2022-09-17T16:43:02.651Z,57.23
2022-09-17T16:45:36.623Z,57.50
2022-09-17T16:48:13.633Z,57.60
2022-09-17T16:50:44.368Z,57.44
2022-09-17T16:53:12.998Z,57.65
2022-09-17T16:55:40.765Z,57.64
2022-09-17T16:58:11.832Z,57.98
2022-09-17T17:00:42.707Z,57.99
2022-09-17T17:03:13.745Z,57.97
2022-09-17T17:05:41.902Z,58.32
2022-09-17T17:08:10.703Z,58.44
2022-09-17T17:10:39.403Z,58.45
2022-09-17T17:13:07.237Z,58.57
2022-09-17T17:15:35.577Z,58.47
2022-09-17T17:18:03.378Z,58.58
2022-09-17T17:20:35.569Z,59.06
2022-09-17T17:23:31.130Z,59.16
2022-09-17T17:26:00.675Z,59.36
2022-09-17T17:28:31.594Z,59.63
2022-09-17T17:31:00.597Z,59.57
2022-09-17T17:33:28.540Z,59.72
2022-09-17T17:36:01.890Z,59.83
2022-09-17T17:38:45.734Z,60.13
2022-09-17T17:41:27.510Z,60.43
2022-09-17T17:43:57.659Z,60.57
2022-09-17T17:46:25.632Z,60.62
2022-09-17T17:49:00.183Z,61.02
2022-09-17T17:51:52.416Z,60.61
2022-09-17T17:54:29.883Z,60.95
2022-09-17T17:57:16.459Z,61.22
2022-09-17T17:59:47.199Z,61.45
2022-09-17T18:02:39.282Z,61.47
2022-09-17T18:05:44.011Z,61.45
2022-09-17T18:08:14.869Z,61.59
2022-09-17T18:10:42.649Z,61.77
2022-09-17T18:13:13.479Z,61.91
2022-09-17T18:15:51.135Z,62.12
2022-09-17T18:18:44.826Z,62.23
2022-09-17T18:21:59.003Z,62.39
2022-09-17T18:24:32.441Z,62.55
2022-09-17T18:27:19.492Z,62.86
2022-09-17T18:29:47.207Z,62.93
2022-09-17T18:32:15.020Z,62.87
2022-09-17T18:34:51.542Z,63.04
2022-09-17T18:37:19.676Z,62.99
2022-09-17T18:40:04.713Z,63.05
2022-09-17T18:42:38.766Z,63.37
2022-09-17T18:45:12.478Z,63.45
2022-09-17T18:47:50.199Z,63.46
2022-09-17T18:51:01.110Z,63.45
2022-09-17T18:53:30.485Z,63.59
2022-09-17T18:56:23.784Z,63.79
2022-09-17T18:58:55.126Z,63.69
2022-09-17T19:01:25.588Z,63.79
2022-09-17T19:03:54.775Z,63.80
2022-09-17T19:06:24.733Z,63.92
2022-09-17T19:08:52.607Z,63.84
2022-09-17T19:11:20.568Z,63.87
2022-09-17T19:13:51.490Z,63.98
2022-09-17T19:16:28.870Z,63.76
2022-09-17T19:19:13.121Z,63.83
2022-09-17T19:21:49.780Z,64.02
2022-09-17T19:24:17.466Z,64.19
2022-09-17T19:26:51.299Z,64.25
2022-09-17T19:29:21.872Z,64.37
2022-09-17T19:31:49.576Z,64.30
2022-09-17T19:34:40.450Z,64.41
2022-09-17T19:37:29.750Z,64.51
2022-09-17T19:39:57.452Z,64.74
2022-09-17T19:42:25.840Z,64.84
2022-09-17T19:44:54.059Z,64.98
2022-09-17T19:47:21.723Z,64.86
2022-09-17T19:49:52.350Z,64.80
2022-09-17T19:52:20.369Z,64.67
2022-09-17T19:54:49.286Z,64.87
2022-09-17T19:57:16.923Z,64.94
2022-09-17T19:59:44.883Z,64.97
2022-09-17T20:02:34.119Z,65.02
2022-09-17T20:05:08.529Z,65.07
2022-09-17T20:07:36.168Z,65.14
2022-09-17T20:10:05.386Z,65.24
2022-09-17T20:12:36.021Z,65.40
2022-09-17T20:15:12.585Z,65.35
2022-09-17T20:17:55.886Z,65.26
2022-09-17T20:20:30.888Z,65.50
2022-09-17T20:22:58.604Z,65.65
2022-09-17T20:25:27.138Z,65.59
2022-09-17T20:27:55.125Z,65.79
2022-09-17T20:30:23.130Z,65.71
2022-09-17T20:32:51.365Z,65.64
2022-09-17T20:35:19.944Z,65.78
2022-09-17T20:40:35.720Z,65.67
2022-09-17T20:43:15.144Z,65.62
2022-09-17T20:46:28.341Z,65.88
2022-09-17T20:49:17.412Z,66.18
2022-09-17T20:51:45.250Z,66.15
2022-09-17T20:54:14.482Z,66.03
2022-09-17T20:56:44.221Z,65.94
2022-09-17T20:59:28.634Z,66.54
2022-09-17T21:01:59.168Z,66.26
2022-09-17T21:04:27.414Z,66.27
2022-09-17T21:06:56.188Z,66.14
2022-09-17T21:09:23.946Z,66.11
2022-09-17T21:11:51.992Z,66.01
2022-09-17T21:14:37.786Z,66.34
2022-09-17T21:17:05.864Z,66.19
2022-09-17T21:19:33.558Z,66.25
2022-09-17T21:22:02.121Z,66.18
2022-09-17T21:24:29.792Z,66.37
2022-09-17T21:26:57.556Z,66.18
2022-09-17T21:29:25.293Z,65.97
2022-09-17T21:31:54.425Z,66.05
2022-09-17T21:34:22.124Z,66.04
2022-09-17T21:36:51.638Z,66.15
2022-09-17T21:39:19.359Z,66.37
2022-09-17T21:42:21.583Z,66.27
2022-09-17T21:44:49.270Z,66.39
2022-09-17T21:47:23.007Z,66.29
2022-09-17T21:49:56.941Z,66.34
2022-09-17T21:52:25.853Z,66.21
2022-09-17T21:54:53.909Z,66.24
2022-09-17T21:57:24.710Z,66.35
2022-09-17T21:59:52.789Z,66.36
2022-09-17T22:02:21.051Z,66.24
2022-09-17T22:04:48.758Z,66.28
2022-09-17T22:07:19.228Z,66.07
2022-09-17T22:09:56.137Z,66.27
2022-09-17T22:12:39.282Z,66.18
2022-09-17T22:15:07.678Z,66.49
2022-09-17T22:17:38.599Z,66.51
2022-09-17T22:20:12.421Z,66.42
2022-09-17T22:22:40.307Z,66.51
2022-09-17T22:25:17.775Z,66.73
2022-09-17T22:28:16.867Z,67.00
2022-09-17T22:30:40.226Z,67.02
2022-09-17T22:33:07.929Z,67.33
2022-09-17T22:35:38.928Z,67.41
2022-09-17T22:38:06.757Z,67.25
2022-09-17T22:40:36.693Z,67.25
2022-09-17T22:43:07.940Z,67.28
2022-09-17T22:45:35.681Z,67.36
2022-09-17T22:48:20.212Z,67.46
2022-09-17T22:50:51.508Z,67.22
2022-09-17T22:53:19.600Z,67.21
2022-09-17T22:56:32.816Z,67.56
2022-09-17T22:59:02.038Z,67.63
2022-09-17T23:01:33.977Z,67.87
2022-09-17T23:04:02.767Z,67.91
2022-09-17T23:06:33.595Z,67.84
2022-09-17T23:09:02.036Z,67.87
2022-09-17T23:11:31.318Z,67.82
2022-09-17T23:14:02.432Z,67.96
2022-09-17T23:16:45.751Z,67.92
2022-09-17T23:19:38.566Z,67.87
2022-09-17T23:22:06.347Z,67.90
2022-09-17T23:24:34.586Z,67.71
2022-09-17T23:27:02.286Z,67.70
2022-09-17T23:29:30.043Z,67.89
2022-09-17T23:31:57.775Z,68.01
2022-09-17T23:34:25.447Z,68.28
2022-09-17T23:36:53.229Z,68.10
2022-09-17T23:39:20.929Z,68.47
2022-09-17T23:41:48.851Z,68.97
2022-09-17T23:44:19.938Z,69.05
2022-09-17T23:46:47.832Z,69.08
2022-09-17T23:49:17.870Z,68.85
2022-09-17T23:51:47.446Z,69.25
2022-09-17T23:54:15.696Z,69.42
2022-09-17T23:56:43.793Z,69.32
2022-09-17T23:59:11.906Z,69.41
